sensor_id;sensor_type;location;lat;lon;timestamp;P1;durP1;ratioP1;P2;durP2;ratioP2
46899;SDS011;32647;49.382;7.078;2022-08-01T00:02:05;3.00;;;2.70;;
46899;SDS011;32647;49.382;7.078;2022-08-01T00:04:53;4.25;;;2.30;;
46899;SDS011;32647;49.382;7.078;2022-08-01T00:07:39;2.67;;;2.28;;
46899;SDS011;32647;49.382;7.078;2022-08-01T00:10:26;2.40;;;2.20;;
46899;SDS011;32647;49.382;7.078;2022-08-01T00:13:12;4.13;;;2.33;;
46899;SDS011;32647;49.382;7.078;2022-08-01T00:15:58;5.78;;;2.38;;
46899;SDS011;32647;49.382;7.078;2022-08-01T00:18:44;5.07;;;2.15;;
46899;SDS011;32647;49.382;7.078;2022-08-01T00:21:30;5.22;;;2.15;;
46899;SDS011;32647;49.382;7.078;2022-08-01T00:24:16;3.05;;;2.30;;
46899;SDS011;32647;49.382;7.078;2022-08-01T00:27:02;3.40;;;2.25;;
46899;SDS011;32647;49.382;7.078;2022-08-01T00:29:48;2.60;;;2.25;;
46899;SDS011;32647;49.382;7.078;2022-08-01T00:32:34;4.05;;;2.08;;
46899;SDS011;32647;49.382;7.078;2022-08-01T00:35:24;2.35;;;2.00;;
46899;SDS011;32647;49.382;7.078;2022-08-01T00:38:10;5.82;;;2.15;;
46899;SDS011;32647;49.382;7.078;2022-08-01T00:40:56;3.85;;;2.50;;
46899;SDS011;32647;49.382;7.078;2022-08-01T00:43:46;2.13;;;1.92;;
46899;SDS011;32647;49.382;7.078;2022-08-01T00:46:33;3.70;;;2.30;;
46899;SDS011;32647;49.382;7.078;2022-08-01T00:49:19;4.80;;;2.50;;
46899;SDS011;32647;49.382;7.078;2022-08-01T00:52:07;4.55;;;2.45;;
46899;SDS011;32647;49.382;7.078;2022-08-01T00:54:53;3.22;;;2.05;;
46899;SDS011;32647;49.382;7.078;2022-08-01T00:57:40;2.30;;;2.10;;
46899;SDS011;32647;49.382;7.078;2022-08-01T01:00:26;2.53;;;2.25;;
46899;SDS011;32647;49.382;7.078;2022-08-01T01:03:12;3.88;;;1.98;;
46899;SDS011;32647;49.382;7.078;2022-08-01T01:06:08;2.60;;;2.35;;
46899;SDS011;32647;49.382;7.078;2022-08-01T01:12:31;2.90;;;2.08;;
46899;SDS011;32647;49.382;7.078;2022-08-01T01:15:26;2.72;;;2.30;;
46899;SDS011;32647;49.382;7.078;2022-08-01T01:18:23;3.80;;;2.05;;
46899;SDS011;32647;49.382;7.078;2022-08-01T01:27:32;3.25;;;2.40;;
46899;SDS011;32647;49.382;7.078;2022-08-01T01:30:30;3.45;;;2.15;;
46899;SDS011;32647;49.382;7.078;2022-08-01T01:33:18;2.85;;;2.50;;
46899;SDS011;32647;49.382;7.078;2022-08-01T01:36:08;3.72;;;2.40;;
46899;SDS011;32647;49.382;7.078;2022-08-01T01:38:55;2.65;;;2.28;;
46899;SDS011;32647;49.382;7.078;2022-08-01T01:41:42;4.22;;;2.72;;
46899;SDS011;32647;49.382;7.078;2022-08-01T01:44:30;3.13;;;2.50;;
46899;SDS011;32647;49.382;7.078;2022-08-01T01:47:17;3.15;;;2.55;;
46899;SDS011;32647;49.382;7.078;2022-08-01T01:50:03;2.83;;;2.60;;
46899;SDS011;32647;49.382;7.078;2022-08-01T01:52:51;3.50;;;2.60;;
46899;SDS011;32647;49.382;7.078;2022-08-01T01:55:40;3.60;;;3.28;;
46899;SDS011;32647;49.382;7.078;2022-08-01T01:58:48;3.38;;;2.58;;
46899;SDS011;32647;49.382;7.078;2022-08-01T02:01:37;2.65;;;2.45;;
46899;SDS011;32647;49.382;7.078;2022-08-01T02:04:24;2.40;;;2.20;;
46899;SDS011;32647;49.382;7.078;2022-08-01T02:07:13;2.80;;;2.47;;
46899;SDS011;32647;49.382;7.078;2022-08-01T02:10:03;3.58;;;2.45;;
46899;SDS011;32647;49.382;7.078;2022-08-01T02:12:50;3.25;;;2.42;;
46899;SDS011;32647;49.382;7.078;2022-08-01T02:15:36;2.97;;;2.67;;
46899;SDS011;32647;49.382;7.078;2022-08-01T02:18:25;5.93;;;2.50;;
46899;SDS011;32647;49.382;7.078;2022-08-01T02:21:13;3.28;;;2.40;;
46899;SDS011;32647;49.382;7.078;2022-08-01T02:24:17;3.63;;;2.78;;
46899;SDS011;32647;49.382;7.078;2022-08-01T02:27:14;3.10;;;2.80;;
46899;SDS011;32647;49.382;7.078;2022-08-01T02:30:07;3.15;;;2.33;;
46899;SDS011;32647;49.382;7.078;2022-08-01T02:33:05;2.47;;;2.28;;
46899;SDS011;32647;49.382;7.078;2022-08-01T02:36:01;2.80;;;2.40;;
46899;SDS011;32647;49.382;7.078;2022-08-01T02:38:51;2.63;;;2.33;;
46899;SDS011;32647;49.382;7.078;2022-08-01T02:41:45;3.40;;;2.50;;
46899;SDS011;32647;49.382;7.078;2022-08-01T02:44:37;2.88;;;2.10;;
46899;SDS011;32647;49.382;7.078;2022-08-01T02:47:25;4.97;;;3.03;;
46899;SDS011;32647;49.382;7.078;2022-08-01T02:50:14;3.03;;;2.47;;
46899;SDS011;32647;49.382;7.078;2022-08-01T02:53:02;4.47;;;2.78;;
46899;SDS011;32647;49.382;7.078;2022-08-01T02:55:51;4.75;;;3.00;;
46899;SDS011;32647;49.382;7.078;2022-08-01T02:58:39;2.65;;;2.42;;
46899;SDS011;32647;49.382;7.078;2022-08-01T03:01:27;3.28;;;2.63;;
46899;SDS011;32647;49.382;7.078;2022-08-01T03:04:13;3.22;;;2.67;;
46899;SDS011;32647;49.382;7.078;2022-08-01T03:07:04;3.35;;;2.78;;
46899;SDS011;32647;49.382;7.078;2022-08-01T03:09:53;3.67;;;2.67;;
46899;SDS011;32647;49.382;7.078;2022-08-01T03:12:39;3.42;;;2.70;;
46899;SDS011;32647;49.382;7.078;2022-08-01T03:15:26;2.47;;;2.28;;
46899;SDS011;32647;49.382;7.078;2022-08-01T03:18:17;3.38;;;2.50;;
46899;SDS011;32647;49.382;7.078;2022-08-01T03:21:04;4.80;;;2.47;;
46899;SDS011;32647;49.382;7.078;2022-08-01T03:23:54;3.67;;;2.40;;
46899;SDS011;32647;49.382;7.078;2022-08-01T03:26:43;2.85;;;2.45;;
46899;SDS011;32647;49.382;7.078;2022-08-01T03:29:30;3.05;;;2.65;;
46899;SDS011;32647;49.382;7.078;2022-08-01T03:32:18;3.00;;;2.70;;
46899;SDS011;32647;49.382;7.078;2022-08-01T03:35:06;2.45;;;2.25;;
46899;SDS011;32647;49.382;7.078;2022-08-01T03:37:53;2.88;;;2.42;;
46899;SDS011;32647;49.382;7.078;2022-08-01T03:40:47;3.53;;;2.72;;
46899;SDS011;32647;49.382;7.078;2022-08-01T03:43:57;2.88;;;2.50;;
46899;SDS011;32647;49.382;7.078;2022-08-01T03:46:50;3.10;;;2.70;;
46899;SDS011;32647;49.382;7.078;2022-08-01T03:49:45;2.75;;;2.55;;
46899;SDS011;32647;49.382;7.078;2022-08-01T03:52:33;3.20;;;2.90;;
46899;SDS011;32647;49.382;7.078;2022-08-01T03:55:24;2.47;;;2.28;;
46899;SDS011;32647;49.382;7.078;2022-08-01T03:58:11;3.78;;;2.85;;
46899;SDS011;32647;49.382;7.078;2022-08-01T04:00:59;6.18;;;2.80;;
46899;SDS011;32647;49.382;7.078;2022-08-01T04:03:45;3.17;;;2.67;;
46899;SDS011;32647;49.382;7.078;2022-08-01T04:06:32;2.83;;;2.63;;
46899;SDS011;32647;49.382;7.078;2022-08-01T04:09:18;3.60;;;2.95;;
46899;SDS011;32647;49.382;7.078;2022-08-01T04:12:04;3.30;;;2.58;;
46899;SDS011;32647;49.382;7.078;2022-08-01T04:14:51;3.30;;;3.00;;
46899;SDS011;32647;49.382;7.078;2022-08-01T04:17:37;5.15;;;2.60;;
46899;SDS011;32647;49.382;7.078;2022-08-01T04:20:23;3.50;;;2.63;;
46899;SDS011;32647;49.382;7.078;2022-08-01T04:23:09;3.35;;;2.80;;
46899;SDS011;32647;49.382;7.078;2022-08-01T04:25:56;4.10;;;3.20;;
46899;SDS011;32647;49.382;7.078;2022-08-01T04:28:44;3.15;;;2.90;;
46899;SDS011;32647;49.382;7.078;2022-08-01T04:31:31;3.45;;;3.08;;
46899;SDS011;32647;49.382;7.078;2022-08-01T04:34:20;3.63;;;2.90;;
46899;SDS011;32647;49.382;7.078;2022-08-01T04:37:08;3.35;;;3.00;;
46899;SDS011;32647;49.382;7.078;2022-08-01T04:39:56;4.97;;;3.15;;
46899;SDS011;32647;49.382;7.078;2022-08-01T04:42:53;3.85;;;3.10;;
46899;SDS011;32647;49.382;7.078;2022-08-01T04:45:40;8.88;;;3.25;;
46899;SDS011;32647;49.382;7.078;2022-08-01T04:48:29;3.80;;;2.70;;
46899;SDS011;32647;49.382;7.078;2022-08-01T04:51:17;3.50;;;2.88;;
46899;SDS011;32647;49.382;7.078;2022-08-01T04:54:07;2.92;;;2.63;;
46899;SDS011;32647;49.382;7.078;2022-08-01T04:56:56;3.35;;;3.05;;
46899;SDS011;32647;49.382;7.078;2022-08-01T04:59:45;5.72;;;3.08;;
46899;SDS011;32647;49.382;7.078;2022-08-01T05:02:31;4.55;;;3.22;;
46899;SDS011;32647;49.382;7.078;2022-08-01T05:05:18;5.85;;;3.10;;
46899;SDS011;32647;49.382;7.078;2022-08-01T05:08:05;4.65;;;3.80;;
46899;SDS011;32647;49.382;7.078;2022-08-01T05:10:51;3.95;;;3.40;;
46899;SDS011;32647;49.382;7.078;2022-08-01T05:13:39;3.65;;;3.25;;
46899;SDS011;32647;49.382;7.078;2022-08-01T05:16:25;4.55;;;3.55;;
46899;SDS011;32647;49.382;7.078;2022-08-01T05:19:11;4.55;;;3.28;;
46899;SDS011;32647;49.382;7.078;2022-08-01T05:21:58;3.08;;;2.78;;
46899;SDS011;32647;49.382;7.078;2022-08-01T05:24:45;4.25;;;2.78;;
46899;SDS011;32647;49.382;7.078;2022-08-01T05:27:32;2.67;;;2.47;;
46899;SDS011;32647;49.382;7.078;2022-08-01T05:30:23;3.38;;;2.70;;
46899;SDS011;32647;49.382;7.078;2022-08-01T05:33:09;3.67;;;2.47;;
46899;SDS011;32647;49.382;7.078;2022-08-01T05:35:55;4.90;;;2.55;;
46899;SDS011;32647;49.382;7.078;2022-08-01T05:38:41;3.80;;;2.67;;
46899;SDS011;32647;49.382;7.078;2022-08-01T05:41:27;3.55;;;2.28;;
46899;SDS011;32647;49.382;7.078;2022-08-01T05:44:13;3.45;;;2.50;;
46899;SDS011;32647;49.382;7.078;2022-08-01T05:46:59;4.90;;;2.25;;
46899;SDS011;32647;49.382;7.078;2022-08-01T05:49:45;6.32;;;2.25;;
46899;SDS011;32647;49.382;7.078;2022-08-01T05:52:31;2.65;;;2.22;;
46899;SDS011;32647;49.382;7.078;2022-08-01T05:55:17;3.63;;;1.95;;
46899;SDS011;32647;49.382;7.078;2022-08-01T05:58:03;7.22;;;2.53;;
46899;SDS011;32647;49.382;7.078;2022-08-01T06:00:49;4.07;;;2.08;;
46899;SDS011;32647;49.382;7.078;2022-08-01T06:03:35;3.95;;;2.08;;
46899;SDS011;32647;49.382;7.078;2022-08-01T06:06:21;4.18;;;1.95;;
46899;SDS011;32647;49.382;7.078;2022-08-01T06:09:07;3.90;;;2.15;;
46899;SDS011;32647;49.382;7.078;2022-08-01T06:11:53;3.92;;;2.17;;
46899;SDS011;32647;49.382;7.078;2022-08-01T06:14:39;2.72;;;2.15;;
46899;SDS011;32647;49.382;7.078;2022-08-01T06:17:25;3.80;;;2.65;;
46899;SDS011;32647;49.382;7.078;2022-08-01T06:20:11;4.68;;;2.60;;
46899;SDS011;32647;49.382;7.078;2022-08-01T06:22:57;2.33;;;1.98;;
46899;SDS011;32647;49.382;7.078;2022-08-01T06:25:43;4.88;;;1.80;;
46899;SDS011;32647;49.382;7.078;2022-08-01T06:28:29;2.28;;;1.83;;
46899;SDS011;32647;49.382;7.078;2022-08-01T06:31:15;2.70;;;1.70;;
46899;SDS011;32647;49.382;7.078;2022-08-01T06:34:01;1.80;;;1.45;;
46899;SDS011;32647;49.382;7.078;2022-08-01T06:36:47;3.40;;;1.95;;
46899;SDS011;32647;49.382;7.078;2022-08-01T06:39:33;2.45;;;1.60;;
46899;SDS011;32647;49.382;7.078;2022-08-01T06:42:19;2.65;;;1.77;;
46899;SDS011;32647;49.382;7.078;2022-08-01T06:45:05;2.08;;;1.70;;
46899;SDS011;32647;49.382;7.078;2022-08-01T06:47:53;1.85;;;1.50;;
46899;SDS011;32647;49.382;7.078;2022-08-01T06:50:39;3.97;;;2.13;;
46899;SDS011;32647;49.382;7.078;2022-08-01T06:53:25;1.98;;;1.70;;
46899;SDS011;32647;49.382;7.078;2022-08-01T06:56:11;3.92;;;1.92;;
46899;SDS011;32647;49.382;7.078;2022-08-01T06:58:57;2.05;;;1.60;;
46899;SDS011;32647;49.382;7.078;2022-08-01T07:01:46;1.95;;;1.52;;
46899;SDS011;32647;49.382;7.078;2022-08-01T07:04:32;1.73;;;1.63;;
46899;SDS011;32647;49.382;7.078;2022-08-01T07:07:17;1.77;;;1.42;;
46899;SDS011;32647;49.382;7.078;2022-08-01T07:10:04;3.60;;;1.63;;
46899;SDS011;32647;49.382;7.078;2022-08-01T07:12:50;1.73;;;1.50;;
46899;SDS011;32647;49.382;7.078;2022-08-01T07:15:36;2.22;;;1.30;;
46899;SDS011;32647;49.382;7.078;2022-08-01T07:18:22;1.73;;;1.50;;
46899;SDS011;32647;49.382;7.078;2022-08-01T07:21:08;2.65;;;1.55;;
46899;SDS011;32647;49.382;7.078;2022-08-01T07:23:54;1.20;;;1.10;;
46899;SDS011;32647;49.382;7.078;2022-08-01T07:26:41;2.42;;;1.35;;
46899;SDS011;32647;49.382;7.078;2022-08-01T07:29:28;3.53;;;1.30;;
46899;SDS011;32647;49.382;7.078;2022-08-01T07:32:14;1.98;;;1.23;;
46899;SDS011;32647;49.382;7.078;2022-08-01T07:35:00;2.35;;;1.50;;
46899;SDS011;32647;49.382;7.078;2022-08-01T07:37:47;1.23;;;1.13;;
46899;SDS011;32647;49.382;7.078;2022-08-01T07:40:33;1.30;;;1.20;;
46899;SDS011;32647;49.382;7.078;2022-08-01T07:43:19;1.65;;;1.15;;
46899;SDS011;32647;49.382;7.078;2022-08-01T07:46:06;2.03;;;1.40;;
46899;SDS011;32647;49.382;7.078;2022-08-01T07:48:52;1.10;;;1.00;;
46899;SDS011;32647;49.382;7.078;2022-08-01T07:51:38;1.55;;;1.00;;
46899;SDS011;32647;49.382;7.078;2022-08-01T07:54:24;1.35;;;1.20;;
46899;SDS011;32647;49.382;7.078;2022-08-01T07:57:13;1.20;;;1.00;;
46899;SDS011;32647;49.382;7.078;2022-08-01T07:59:58;1.52;;;1.02;;
46899;SDS011;32647;49.382;7.078;2022-08-01T08:02:44;1.75;;;1.40;;
46899;SDS011;32647;49.382;7.078;2022-08-01T08:05:30;2.17;;;1.17;;
46899;SDS011;32647;49.382;7.078;2022-08-01T08:08:20;4.80;;;1.48;;
46899;SDS011;32647;49.382;7.078;2022-08-01T08:11:06;1.13;;;1.02;;
46899;SDS011;32647;49.382;7.078;2022-08-01T08:13:52;3.05;;;1.30;;
46899;SDS011;32647;49.382;7.078;2022-08-01T08:16:38;2.58;;;1.30;;
46899;SDS011;32647;49.382;7.078;2022-08-01T08:19:24;1.33;;;1.17;;
46899;SDS011;32647;49.382;7.078;2022-08-01T08:22:10;2.95;;;1.40;;
46899;SDS011;32647;49.382;7.078;2022-08-01T08:24:56;4.00;;;1.50;;
46899;SDS011;32647;49.382;7.078;2022-08-01T08:27:42;1.20;;;1.20;;
46899;SDS011;32647;49.382;7.078;2022-08-01T08:30:28;1.42;;;1.25;;
46899;SDS011;32647;49.382;7.078;2022-08-01T08:33:14;3.58;;;1.25;;
46899;SDS011;32647;49.382;7.078;2022-08-01T08:36:00;3.55;;;0.88;;
46899;SDS011;32647;49.382;7.078;2022-08-01T08:38:45;1.23;;;1.13;;
46899;SDS011;32647;49.382;7.078;2022-08-01T08:41:32;1.80;;;1.20;;
46899;SDS011;32647;49.382;7.078;2022-08-01T08:44:19;3.15;;;1.30;;
46899;SDS011;32647;49.382;7.078;2022-08-01T08:47:07;1.63;;;1.10;;
46899;SDS011;32647;49.382;7.078;2022-08-01T08:49:57;3.55;;;1.35;;
46899;SDS011;32647;49.382;7.078;2022-08-01T08:52:43;9.43;;;1.17;;
46899;SDS011;32647;49.382;7.078;2022-08-01T08:55:31;2.17;;;1.15;;
46899;SDS011;32647;49.382;7.078;2022-08-01T08:58:17;1.90;;;1.20;;
46899;SDS011;32647;49.382;7.078;2022-08-01T09:01:05;1.70;;;1.30;;
46899;SDS011;32647;49.382;7.078;2022-08-01T09:03:52;2.78;;;1.30;;
46899;SDS011;32647;49.382;7.078;2022-08-01T09:06:39;1.30;;;1.20;;
46899;SDS011;32647;49.382;7.078;2022-08-01T09:09:25;1.25;;;1.02;;
46899;SDS011;32647;49.382;7.078;2022-08-01T09:12:11;3.15;;;1.60;;
46899;SDS011;32647;49.382;7.078;2022-08-01T09:15:02;1.63;;;1.20;;
46899;SDS011;32647;49.382;7.078;2022-08-01T09:17:48;3.88;;;1.45;;
46899;SDS011;32647;49.382;7.078;2022-08-01T09:20:35;1.48;;;1.05;;
46899;SDS011;32647;49.382;7.078;2022-08-01T09:23:31;6.32;;;1.42;;
46899;SDS011;32647;49.382;7.078;2022-08-01T09:26:37;2.03;;;1.25;;
46899;SDS011;32647;49.382;7.078;2022-08-01T09:29:25;4.00;;;1.20;;
46899;SDS011;32647;49.382;7.078;2022-08-01T09:32:15;1.10;;;1.10;;
46899;SDS011;32647;49.382;7.078;2022-08-01T09:35:22;1.70;;;1.15;;
46899;SDS011;32647;49.382;7.078;2022-08-01T09:41:04;6.60;;;1.40;;
46899;SDS011;32647;49.382;7.078;2022-08-01T09:43:52;1.25;;;1.15;;
46899;SDS011;32647;49.382;7.078;2022-08-01T09:46:51;1.38;;;1.27;;
46899;SDS011;32647;49.382;7.078;2022-08-01T09:49:40;2.97;;;1.20;;
46899;SDS011;32647;49.382;7.078;2022-08-01T09:52:27;0.98;;;0.98;;
46899;SDS011;32647;49.382;7.078;2022-08-01T09:55:13;2.65;;;1.13;;
46899;SDS011;32647;49.382;7.078;2022-08-01T09:58:06;1.95;;;1.30;;
46899;SDS011;32647;49.382;7.078;2022-08-01T10:00:59;2.05;;;1.08;;
46899;SDS011;32647;49.382;7.078;2022-08-01T10:03:45;3.80;;;0.90;;
46899;SDS011;32647;49.382;7.078;2022-08-01T10:06:31;1.38;;;1.10;;
46899;SDS011;32647;49.382;7.078;2022-08-01T10:09:27;2.72;;;1.20;;
46899;SDS011;32647;49.382;7.078;2022-08-01T10:12:15;2.22;;;1.00;;
46899;SDS011;32647;49.382;7.078;2022-08-01T10:15:03;1.30;;;1.20;;
46899;SDS011;32647;49.382;7.078;2022-08-01T10:17:58;1.67;;;1.10;;
46899;SDS011;32647;49.382;7.078;2022-08-01T10:20:45;1.63;;;1.52;;
46899;SDS011;32647;49.382;7.078;2022-08-01T10:23:36;1.80;;;1.38;;
46899;SDS011;32647;49.382;7.078;2022-08-01T10:26:25;2.10;;;1.17;;
46899;SDS011;32647;49.382;7.078;2022-08-01T10:29:11;1.08;;;1.08;;
46899;SDS011;32647;49.382;7.078;2022-08-01T10:31:58;1.55;;;1.15;;
46899;SDS011;32647;49.382;7.078;2022-08-01T10:34:44;1.08;;;1.00;;
46899;SDS011;32647;49.382;7.078;2022-08-01T10:37:32;1.30;;;1.20;;
46899;SDS011;32647;49.382;7.078;2022-08-01T10:40:19;2.33;;;1.00;;
46899;SDS011;32647;49.382;7.078;2022-08-01T10:43:05;1.65;;;1.08;;
46899;SDS011;32647;49.382;7.078;2022-08-01T10:45:52;1.58;;;1.15;;
46899;SDS011;32647;49.382;7.078;2022-08-01T10:48:41;1.95;;;1.20;;
46899;SDS011;32647;49.382;7.078;2022-08-01T10:51:38;4.30;;;1.70;;
46899;SDS011;32647;49.382;7.078;2022-08-01T10:54:25;3.60;;;1.58;;
46899;SDS011;32647;49.382;7.078;2022-08-01T10:57:12;1.55;;;1.45;;
46899;SDS011;32647;49.382;7.078;2022-08-01T10:59:59;1.48;;;1.10;;
46899;SDS011;32647;49.382;7.078;2022-08-01T11:02:59;2.17;;;1.17;;
46899;SDS011;32647;49.382;7.078;2022-08-01T11:05:48;3.30;;;1.13;;
46899;SDS011;32647;49.382;7.078;2022-08-01T11:08:38;3.75;;;1.25;;
46899;SDS011;32647;49.382;7.078;2022-08-01T11:11:24;0.80;;;0.80;;
46899;SDS011;32647;49.382;7.078;2022-08-01T11:14:10;0.90;;;0.90;;
46899;SDS011;32647;49.382;7.078;2022-08-01T11:17:29;1.80;;;1.20;;
46899;SDS011;32647;49.382;7.078;2022-08-01T11:20:16;2.13;;;1.08;;
46899;SDS011;32647;49.382;7.078;2022-08-01T11:28:37;1.85;;;1.10;;
46899;SDS011;32647;49.382;7.078;2022-08-01T11:31:26;1.20;;;0.95;;
46899;SDS011;32647;49.382;7.078;2022-08-01T11:34:13;0.90;;;0.90;;
46899;SDS011;32647;49.382;7.078;2022-08-01T11:46:01;7.00;;;1.38;;
46899;SDS011;32647;49.382;7.078;2022-08-01T11:48:48;1.30;;;1.20;;
46899;SDS011;32647;49.382;7.078;2022-08-01T11:52:27;1.08;;;1.00;;
46899;SDS011;32647;49.382;7.078;2022-08-01T11:55:14;2.22;;;1.35;;
46899;SDS011;32647;49.382;7.078;2022-08-01T11:58:01;1.50;;;1.40;;
46899;SDS011;32647;49.382;7.078;2022-08-01T12:00:58;1.33;;;1.10;;
46899;SDS011;32647;49.382;7.078;2022-08-01T12:03:44;1.77;;;1.10;;
46899;SDS011;32647;49.382;7.078;2022-08-01T12:06:30;4.10;;;1.05;;
46899;SDS011;32647;49.382;7.078;2022-08-01T12:09:20;1.10;;;0.80;;
46899;SDS011;32647;49.382;7.078;2022-08-01T12:12:09;3.10;;;1.15;;
46899;SDS011;32647;49.382;7.078;2022-08-01T12:14:56;1.77;;;1.30;;
46899;SDS011;32647;49.382;7.078;2022-08-01T12:17:44;1.95;;;1.20;;
46899;SDS011;32647;49.382;7.078;2022-08-01T12:20:33;3.15;;;1.08;;
46899;SDS011;32647;49.382;7.078;2022-08-01T12:23:21;2.50;;;0.93;;
46899;SDS011;32647;49.382;7.078;2022-08-01T12:26:07;0.95;;;0.95;;
46899;SDS011;32647;49.382;7.078;2022-08-01T12:28:52;2.40;;;0.68;;
46899;SDS011;32647;49.382;7.078;2022-08-01T12:31:38;2.38;;;0.90;;
46899;SDS011;32647;49.382;7.078;2022-08-01T12:34:25;1.15;;;0.93;;
46899;SDS011;32647;49.382;7.078;2022-08-01T12:37:14;1.55;;;1.02;;
46899;SDS011;32647;49.382;7.078;2022-08-01T12:40:02;0.80;;;0.80;;
46899;SDS011;32647;49.382;7.078;2022-08-01T12:42:59;1.23;;;1.00;;
46899;SDS011;32647;49.382;7.078;2022-08-01T12:45:50;0.70;;;0.70;;
46899;SDS011;32647;49.382;7.078;2022-08-01T12:48:38;1.17;;;0.75;;
46899;SDS011;32647;49.382;7.078;2022-08-01T12:51:24;1.00;;;0.80;;
46899;SDS011;32647;49.382;7.078;2022-08-01T12:54:10;1.20;;;1.05;;
46899;SDS011;32647;49.382;7.078;2022-08-01T12:56:56;0.80;;;0.80;;
46899;SDS011;32647;49.382;7.078;2022-08-01T12:59:43;0.93;;;0.90;;
46899;SDS011;32647;49.382;7.078;2022-08-01T13:02:33;1.27;;;0.80;;
46899;SDS011;32647;49.382;7.078;2022-08-01T13:05:20;0.60;;;0.60;;
46899;SDS011;32647;49.382;7.078;2022-08-01T13:08:11;0.80;;;0.80;;
46899;SDS011;32647;49.382;7.078;2022-08-01T13:11:08;0.90;;;0.90;;
46899;SDS011;32647;49.382;7.078;2022-08-01T13:13:59;4.88;;;1.05;;
46899;SDS011;32647;49.382;7.078;2022-08-01T13:16:46;1.30;;;0.95;;
46899;SDS011;32647;49.382;7.078;2022-08-01T13:19:45;5.70;;;1.20;;
46899;SDS011;32647;49.382;7.078;2022-08-01T13:22:36;16.50;;;1.50;;
46899;SDS011;32647;49.382;7.078;2022-08-01T13:25:23;0.75;;;0.75;;
46899;SDS011;32647;49.382;7.078;2022-08-01T13:28:15;1.17;;;1.08;;
46899;SDS011;32647;49.382;7.078;2022-08-01T13:31:08;1.50;;;1.10;;
46899;SDS011;32647;49.382;7.078;2022-08-01T13:33:55;0.93;;;0.75;;
46899;SDS011;32647;49.382;7.078;2022-08-01T13:36:41;1.02;;;0.75;;
46899;SDS011;32647;49.382;7.078;2022-08-01T13:39:28;2.15;;;0.90;;
46899;SDS011;32647;49.382;7.078;2022-08-01T13:42:27;2.47;;;0.90;;
46899;SDS011;32647;49.382;7.078;2022-08-01T13:45:14;0.80;;;0.70;;
46899;SDS011;32647;49.382;7.078;2022-08-01T13:48:00;0.85;;;0.68;;
46899;SDS011;32647;49.382;7.078;2022-08-01T13:50:46;1.20;;;1.10;;
46899;SDS011;32647;49.382;7.078;2022-08-01T13:53:32;1.58;;;0.95;;
46899;SDS011;32647;49.382;7.078;2022-08-01T13:56:18;1.25;;;0.98;;
46899;SDS011;32647;49.382;7.078;2022-08-01T14:01:54;2.83;;;0.85;;
46899;SDS011;32647;49.382;7.078;2022-08-01T14:04:40;3.53;;;0.90;;
46899;SDS011;32647;49.382;7.078;2022-08-01T14:07:27;2.47;;;1.00;;
46899;SDS011;32647;49.382;7.078;2022-08-01T14:10:13;2.85;;;0.88;;
46899;SDS011;32647;49.382;7.078;2022-08-01T14:12:59;2.65;;;0.80;;
46899;SDS011;32647;49.382;7.078;2022-08-01T14:15:45;3.13;;;0.90;;
46899;SDS011;32647;49.382;7.078;2022-08-01T14:18:31;1.27;;;0.95;;
46899;SDS011;32647;49.382;7.078;2022-08-01T14:21:17;0.75;;;0.75;;
46899;SDS011;32647;49.382;7.078;2022-08-01T14:24:04;1.50;;;0.80;;
46899;SDS011;32647;49.382;7.078;2022-08-01T14:26:51;1.75;;;0.70;;
46899;SDS011;32647;49.382;7.078;2022-08-01T14:29:38;1.73;;;1.20;;
46899;SDS011;32647;49.382;7.078;2022-08-01T14:32:25;1.58;;;1.30;;
46899;SDS011;32647;49.382;7.078;2022-08-01T14:35:11;1.20;;;1.10;;
46899;SDS011;32647;49.382;7.078;2022-08-01T14:37:57;0.82;;;0.80;;
46899;SDS011;32647;49.382;7.078;2022-08-01T14:40:43;0.93;;;0.90;;
46899;SDS011;32647;49.382;7.078;2022-08-01T14:43:32;6.18;;;1.10;;
46899;SDS011;32647;49.382;7.078;2022-08-01T14:46:18;1.02;;;0.90;;
46899;SDS011;32647;49.382;7.078;2022-08-01T14:49:04;0.90;;;0.90;;
46899;SDS011;32647;49.382;7.078;2022-08-01T14:51:50;0.95;;;0.70;;
46899;SDS011;32647;49.382;7.078;2022-08-01T14:54:36;2.45;;;0.90;;
46899;SDS011;32647;49.382;7.078;2022-08-01T14:57:22;2.10;;;0.80;;
46899;SDS011;32647;49.382;7.078;2022-08-01T15:00:08;0.60;;;0.60;;
46899;SDS011;32647;49.382;7.078;2022-08-01T15:02:58;9.30;;;0.98;;
46899;SDS011;32647;49.382;7.078;2022-08-01T15:05:44;1.92;;;0.75;;
46899;SDS011;32647;49.382;7.078;2022-08-01T15:08:30;3.63;;;0.70;;
46899;SDS011;32647;49.382;7.078;2022-08-01T15:11:17;0.65;;;0.65;;
46899;SDS011;32647;49.382;7.078;2022-08-01T15:14:03;0.80;;;0.80;;
46899;SDS011;32647;49.382;7.078;2022-08-01T15:17:07;3.08;;;0.70;;
46899;SDS011;32647;49.382;7.078;2022-08-01T15:19:54;4.57;;;1.10;;
46899;SDS011;32647;49.382;7.078;2022-08-01T15:22:40;1.15;;;0.75;;
46899;SDS011;32647;49.382;7.078;2022-08-01T15:25:26;5.65;;;0.90;;
46899;SDS011;32647;49.382;7.078;2022-08-01T15:28:14;2.35;;;0.98;;
46899;SDS011;32647;49.382;7.078;2022-08-01T15:31:00;2.53;;;1.00;;
46899;SDS011;32647;49.382;7.078;2022-08-01T15:33:46;1.40;;;0.73;;
46899;SDS011;32647;49.382;7.078;2022-08-01T15:36:32;1.30;;;0.90;;
46899;SDS011;32647;49.382;7.078;2022-08-01T15:39:18;1.45;;;0.70;;
46899;SDS011;32647;49.382;7.078;2022-08-01T15:42:22;3.90;;;0.90;;
46899;SDS011;32647;49.382;7.078;2022-08-01T15:48:06;1.95;;;1.10;;
46899;SDS011;32647;49.382;7.078;2022-08-01T15:50:52;1.60;;;1.10;;
46899;SDS011;32647;49.382;7.078;2022-08-01T15:53:38;1.02;;;1.00;;
46899;SDS011;32647;49.382;7.078;2022-08-01T15:56:25;3.10;;;1.15;;
46899;SDS011;32647;49.382;7.078;2022-08-01T15:59:11;1.88;;;1.10;;
46899;SDS011;32647;49.382;7.078;2022-08-01T16:01:58;2.63;;;0.82;;
46899;SDS011;32647;49.382;7.078;2022-08-01T16:07:27;1.10;;;1.00;;
46899;SDS011;32647;49.382;7.078;2022-08-01T16:10:13;6.47;;;1.30;;
46899;SDS011;32647;49.382;7.078;2022-08-01T16:12:59;2.03;;;0.80;;
46899;SDS011;32647;49.382;7.078;2022-08-01T16:15:48;1.00;;;0.90;;
46899;SDS011;32647;49.382;7.078;2022-08-01T16:18:34;3.60;;;0.85;;
46899;SDS011;32647;49.382;7.078;2022-08-01T16:21:20;0.80;;;0.80;;
46899;SDS011;32647;49.382;7.078;2022-08-01T16:24:09;0.82;;;0.82;;
46899;SDS011;32647;49.382;7.078;2022-08-01T16:26:55;1.85;;;0.82;;
46899;SDS011;32647;49.382;7.078;2022-08-01T16:29:41;2.88;;;0.82;;
46899;SDS011;32647;49.382;7.078;2022-08-01T16:32:27;0.85;;;0.80;;
46899;SDS011;32647;49.382;7.078;2022-08-01T16:35:13;2.30;;;0.88;;
46899;SDS011;32647;49.382;7.078;2022-08-01T16:37:59;1.50;;;0.90;;
46899;SDS011;32647;49.382;7.078;2022-08-01T16:40:46;1.58;;;0.75;;
46899;SDS011;32647;49.382;7.078;2022-08-01T16:43:32;0.75;;;0.75;;
46899;SDS011;32647;49.382;7.078;2022-08-01T16:46:18;0.85;;;0.85;;
46899;SDS011;32647;49.382;7.078;2022-08-01T16:49:04;1.38;;;0.90;;
46899;SDS011;32647;49.382;7.078;2022-08-01T16:51:52;2.60;;;1.17;;
46899;SDS011;32647;49.382;7.078;2022-08-01T16:54:38;0.90;;;0.90;;
46899;SDS011;32647;49.382;7.078;2022-08-01T16:57:25;1.75;;;0.95;;
46899;SDS011;32647;49.382;7.078;2022-08-01T17:00:11;2.05;;;0.93;;
46899;SDS011;32647;49.382;7.078;2022-08-01T17:02:59;4.45;;;1.33;;
46899;SDS011;32647;49.382;7.078;2022-08-01T17:05:45;1.15;;;0.98;;
46899;SDS011;32647;49.382;7.078;2022-08-01T17:08:31;1.20;;;1.00;;
46899;SDS011;32647;49.382;7.078;2022-08-01T17:11:18;5.13;;;1.25;;
46899;SDS011;32647;49.382;7.078;2022-08-01T17:14:04;2.72;;;1.10;;
46899;SDS011;32647;49.382;7.078;2022-08-01T17:16:50;1.92;;;1.08;;
46899;SDS011;32647;49.382;7.078;2022-08-01T17:19:36;2.53;;;1.10;;
46899;SDS011;32647;49.382;7.078;2022-08-01T17:22:23;1.23;;;1.00;;
46899;SDS011;32647;49.382;7.078;2022-08-01T17:25:09;1.35;;;1.17;;
46899;SDS011;32647;49.382;7.078;2022-08-01T17:27:56;1.77;;;1.30;;
46899;SDS011;32647;49.382;7.078;2022-08-01T17:30:42;2.58;;;1.15;;